sensor_id;sensor_type;location;lat;lon;timestamp;P1;durP1;ratioP1;P2;durP2;ratioP2
14348;SDS011;7258;50.376;8.742;2022-08-21T00:00:00;6.70;;;5.18;;
14348;SDS011;7258;50.376;8.742;2022-08-21T00:02:03;8.88;;;5.22;;
14348;SDS011;7258;50.376;8.742;2022-08-21T00:04:16;8.70;;;5.25;;
14348;SDS011;7258;50.376;8.742;2022-08-21T00:06:23;6.80;;;4.85;;
14348;SDS011;7258;50.376;8.742;2022-08-21T00:08:26;6.93;;;5.20;;
14348;SDS011;7258;50.376;8.742;2022-08-21T00:10:29;5.88;;;5.00;;
14348;SDS011;7258;50.376;8.742;2022-08-21T00:12:32;9.30;;;4.97;;
14348;SDS011;7258;50.376;8.742;2022-08-21T00:14:36;8.70;;;5.47;;
14348;SDS011;7258;50.376;8.742;2022-08-21T00:16:39;7.60;;;5.47;;
14348;SDS011;7258;50.376;8.742;2022-08-21T00:18:43;7.68;;;5.78;;
14348;SDS011;7258;50.376;8.742;2022-08-21T00:20:48;6.50;;;5.10;;
14348;SDS011;7258;50.376;8.742;2022-08-21T00:22:51;5.93;;;4.95;;
14348;SDS011;7258;50.376;8.742;2022-08-21T00:24:57;6.40;;;5.20;;
14348;SDS011;7258;50.376;8.742;2022-08-21T00:27:04;6.85;;;5.53;;
14348;SDS011;7258;50.376;8.742;2022-08-21T00:29:07;6.95;;;5.10;;
14348;SDS011;7258;50.376;8.742;2022-08-21T00:31:09;6.05;;;5.20;;
14348;SDS011;7258;50.376;8.742;2022-08-21T00:33:13;7.85;;;5.75;;
14348;SDS011;7258;50.376;8.742;2022-08-21T00:35:18;8.00;;;5.78;;
14348;SDS011;7258;50.376;8.742;2022-08-21T00:37:25;7.75;;;5.07;;
14348;SDS011;7258;50.376;8.742;2022-08-21T00:39:31;6.82;;;5.55;;
14348;SDS011;7258;50.376;8.742;2022-08-21T00:41:35;9.60;;;5.88;;
14348;SDS011;7258;50.376;8.742;2022-08-21T00:43:40;6.25;;;5.38;;
14348;SDS011;7258;50.376;8.742;2022-08-21T00:45:43;7.85;;;5.70;;
14348;SDS011;7258;50.376;8.742;2022-08-21T00:47:46;9.02;;;5.35;;
14348;SDS011;7258;50.376;8.742;2022-08-21T00:49:49;6.85;;;5.57;;
14348;SDS011;7258;50.376;8.742;2022-08-21T00:51:53;6.50;;;5.50;;
14348;SDS011;7258;50.376;8.742;2022-08-21T00:54:01;9.75;;;5.85;;
14348;SDS011;7258;50.376;8.742;2022-08-21T00:56:06;6.10;;;5.45;;
14348;SDS011;7258;50.376;8.742;2022-08-21T00:58:11;7.85;;;5.88;;
14348;SDS011;7258;50.376;8.742;2022-08-21T01:00:20;6.57;;;5.90;;
14348;SDS011;7258;50.376;8.742;2022-08-21T01:02:26;6.70;;;6.00;;
14348;SDS011;7258;50.376;8.742;2022-08-21T01:04:31;7.95;;;6.10;;
14348;SDS011;7258;50.376;8.742;2022-08-21T01:06:34;6.07;;;5.47;;
14348;SDS011;7258;50.376;8.742;2022-08-21T01:08:37;8.43;;;6.32;;
14348;SDS011;7258;50.376;8.742;2022-08-21T01:10:48;6.60;;;6.00;;
14348;SDS011;7258;50.376;8.742;2022-08-21T01:12:55;6.72;;;6.00;;
14348;SDS011;7258;50.376;8.742;2022-08-21T01:15:00;6.88;;;6.07;;
14348;SDS011;7258;50.376;8.742;2022-08-21T01:17:06;8.45;;;5.97;;
14348;SDS011;7258;50.376;8.742;2022-08-21T01:19:10;7.95;;;6.07;;
14348;SDS011;7258;50.376;8.742;2022-08-21T01:21:16;6.20;;;5.60;;
14348;SDS011;7258;50.376;8.742;2022-08-21T01:23:21;6.50;;;5.88;;
14348;SDS011;7258;50.376;8.742;2022-08-21T01:25:25;8.68;;;6.55;;
14348;SDS011;7258;50.376;8.742;2022-08-21T01:27:27;6.30;;;5.70;;
14348;SDS011;7258;50.376;8.742;2022-08-21T01:29:32;7.65;;;5.85;;
14348;SDS011;7258;50.376;8.742;2022-08-21T01:31:39;7.57;;;5.97;;
14348;SDS011;7258;50.376;8.742;2022-08-21T01:33:42;7.03;;;6.38;;
14348;SDS011;7258;50.376;8.742;2022-08-21T01:35:46;8.85;;;6.50;;
14348;SDS011;7258;50.376;8.742;2022-08-21T01:37:50;7.45;;;6.20;;
14348;SDS011;7258;50.376;8.742;2022-08-21T01:39:53;6.88;;;5.90;;
14348;SDS011;7258;50.376;8.742;2022-08-21T01:41:56;6.75;;;5.95;;
14348;SDS011;7258;50.376;8.742;2022-08-21T01:43:59;8.73;;;6.55;;
14348;SDS011;7258;50.376;8.742;2022-08-21T01:46:02;6.47;;;5.88;;
14348;SDS011;7258;50.376;8.742;2022-08-21T01:48:06;9.63;;;6.15;;
14348;SDS011;7258;50.376;8.742;2022-08-21T01:50:10;7.47;;;6.45;;
14348;SDS011;7258;50.376;8.742;2022-08-21T01:52:16;7.60;;;6.72;;
14348;SDS011;7258;50.376;8.742;2022-08-21T01:54:21;10.77;;;6.72;;
14348;SDS011;7258;50.376;8.742;2022-08-21T01:56:25;8.25;;;6.78;;
14348;SDS011;7258;50.376;8.742;2022-08-21T01:58:29;7.10;;;6.40;;
14348;SDS011;7258;50.376;8.742;2022-08-21T02:00:32;7.90;;;6.47;;
14348;SDS011;7258;50.376;8.742;2022-08-21T02:02:35;6.68;;;6.03;;
14348;SDS011;7258;50.376;8.742;2022-08-21T02:04:38;7.45;;;6.75;;
14348;SDS011;7258;50.376;8.742;2022-08-21T02:06:45;7.55;;;6.25;;
14348;SDS011;7258;50.376;8.742;2022-08-21T02:08:48;8.55;;;6.18;;
14348;SDS011;7258;50.376;8.742;2022-08-21T02:10:53;8.25;;;6.40;;
14348;SDS011;7258;50.376;8.742;2022-08-21T02:12:56;8.68;;;5.97;;
14348;SDS011;7258;50.376;8.742;2022-08-21T02:15:01;7.35;;;5.78;;
14348;SDS011;7258;50.376;8.742;2022-08-21T02:17:04;6.80;;;6.10;;
14348;SDS011;7258;50.376;8.742;2022-08-21T02:19:10;6.13;;;5.45;;
14348;SDS011;7258;50.376;8.742;2022-08-21T02:21:13;8.75;;;6.60;;
14348;SDS011;7258;50.376;8.742;2022-08-21T02:23:16;7.45;;;5.85;;
14348;SDS011;7258;50.376;8.742;2022-08-21T02:25:27;9.23;;;6.65;;
14348;SDS011;7258;50.376;8.742;2022-08-21T02:27:38;8.45;;;6.63;;
14348;SDS011;7258;50.376;8.742;2022-08-21T02:29:42;7.07;;;6.38;;
14348;SDS011;7258;50.376;8.742;2022-08-21T02:31:45;7.90;;;6.03;;
14348;SDS011;7258;50.376;8.742;2022-08-21T02:33:48;6.45;;;5.78;;
14348;SDS011;7258;50.376;8.742;2022-08-21T02:35:51;7.95;;;6.43;;
14348;SDS011;7258;50.376;8.742;2022-08-21T02:37:56;7.68;;;6.22;;
14348;SDS011;7258;50.376;8.742;2022-08-21T02:40:01;8.32;;;6.20;;
14348;SDS011;7258;50.376;8.742;2022-08-21T02:42:05;9.55;;;6.65;;
14348;SDS011;7258;50.376;8.742;2022-08-21T02:44:10;9.85;;;6.78;;
14348;SDS011;7258;50.376;8.742;2022-08-21T02:46:14;7.32;;;5.90;;
14348;SDS011;7258;50.376;8.742;2022-08-21T02:48:20;8.20;;;6.70;;
14348;SDS011;7258;50.376;8.742;2022-08-21T02:50:26;9.82;;;7.15;;
14348;SDS011;7258;50.376;8.742;2022-08-21T02:52:30;7.25;;;6.53;;
14348;SDS011;7258;50.376;8.742;2022-08-21T02:54:33;7.20;;;6.30;;
14348;SDS011;7258;50.376;8.742;2022-08-21T02:56:36;10.02;;;7.00;;
14348;SDS011;7258;50.376;8.742;2022-08-21T02:58:40;7.57;;;6.57;;
14348;SDS011;7258;50.376;8.742;2022-08-21T03:00:47;7.90;;;6.50;;
14348;SDS011;7258;50.376;8.742;2022-08-21T03:02:54;7.13;;;6.43;;
14348;SDS011;7258;50.376;8.742;2022-08-21T03:04:58;8.50;;;6.63;;
14348;SDS011;7258;50.376;8.742;2022-08-21T03:07:01;7.35;;;6.75;;
14348;SDS011;7258;50.376;8.742;2022-08-21T03:09:06;8.98;;;7.13;;
14348;SDS011;7258;50.376;8.742;2022-08-21T03:11:11;9.52;;;7.03;;
14348;SDS011;7258;50.376;8.742;2022-08-21T03:13:16;9.38;;;6.82;;
14348;SDS011;7258;50.376;8.742;2022-08-21T03:15:21;8.57;;;6.80;;
14348;SDS011;7258;50.376;8.742;2022-08-21T03:17:27;9.73;;;7.25;;
14348;SDS011;7258;50.376;8.742;2022-08-21T03:19:30;8.05;;;7.25;;
14348;SDS011;7258;50.376;8.742;2022-08-21T03:21:33;7.78;;;6.75;;
14348;SDS011;7258;50.376;8.742;2022-08-21T03:23:36;9.18;;;7.45;;
14348;SDS011;7258;50.376;8.742;2022-08-21T03:25:40;7.43;;;6.73;;
14348;SDS011;7258;50.376;8.742;2022-08-21T03:27:44;9.05;;;7.60;;
14348;SDS011;7258;50.376;8.742;2022-08-21T03:29:48;8.60;;;7.03;;
14348;SDS011;7258;50.376;8.742;2022-08-21T03:31:51;10.07;;;7.22;;
14348;SDS011;7258;50.376;8.742;2022-08-21T03:33:57;7.40;;;6.70;;
14348;SDS011;7258;50.376;8.742;2022-08-21T03:36:01;9.43;;;7.20;;
14348;SDS011;7258;50.376;8.742;2022-08-21T03:38:07;7.80;;;7.00;;
14348;SDS011;7258;50.376;8.742;2022-08-21T03:40:16;8.50;;;7.33;;
14348;SDS011;7258;50.376;8.742;2022-08-21T03:42:20;8.83;;;7.00;;
14348;SDS011;7258;50.376;8.742;2022-08-21T03:44:23;7.65;;;6.75;;
14348;SDS011;7258;50.376;8.742;2022-08-21T03:46:26;7.78;;;6.82;;
14348;SDS011;7258;50.376;8.742;2022-08-21T03:48:32;9.40;;;7.55;;
14348;SDS011;7258;50.376;8.742;2022-08-21T03:50:39;8.38;;;6.80;;
14348;SDS011;7258;50.376;8.742;2022-08-21T03:52:43;8.07;;;6.70;;
14348;SDS011;7258;50.376;8.742;2022-08-21T03:54:46;10.18;;;6.93;;
14348;SDS011;7258;50.376;8.742;2022-08-21T03:56:49;8.43;;;7.23;;
14348;SDS011;7258;50.376;8.742;2022-08-21T03:58:53;8.30;;;7.00;;
14348;SDS011;7258;50.376;8.742;2022-08-21T04:00:56;9.60;;;6.90;;
14348;SDS011;7258;50.376;8.742;2022-08-21T04:03:00;9.90;;;7.13;;
14348;SDS011;7258;50.376;8.742;2022-08-21T04:05:04;7.90;;;7.10;;
14348;SDS011;7258;50.376;8.742;2022-08-21T04:07:09;7.68;;;6.70;;
14348;SDS011;7258;50.376;8.742;2022-08-21T04:09:12;9.73;;;6.70;;
14348;SDS011;7258;50.376;8.742;2022-08-21T04:11:15;10.30;;;6.80;;
14348;SDS011;7258;50.376;8.742;2022-08-21T04:13:18;7.03;;;6.33;;
14348;SDS011;7258;50.376;8.742;2022-08-21T04:15:22;12.13;;;6.50;;
14348;SDS011;7258;50.376;8.742;2022-08-21T04:17:26;8.83;;;6.10;;
14348;SDS011;7258;50.376;8.742;2022-08-21T04:19:30;10.77;;;6.87;;
14348;SDS011;7258;50.376;8.742;2022-08-21T04:21:33;8.87;;;6.27;;
14348;SDS011;7258;50.376;8.742;2022-08-21T04:23:39;9.68;;;6.70;;
14348;SDS011;7258;50.376;8.742;2022-08-21T04:25:42;7.00;;;6.38;;
14348;SDS011;7258;50.376;8.742;2022-08-21T04:27:45;9.27;;;6.57;;
14348;SDS011;7258;50.376;8.742;2022-08-21T04:29:49;10.27;;;6.80;;
14348;SDS011;7258;50.376;8.742;2022-08-21T04:31:52;9.67;;;6.93;;
14348;SDS011;7258;50.376;8.742;2022-08-21T04:33:56;7.60;;;6.50;;
14348;SDS011;7258;50.376;8.742;2022-08-21T04:36:00;8.70;;;6.40;;
14348;SDS011;7258;50.376;8.742;2022-08-21T04:38:03;9.37;;;6.60;;
14348;SDS011;7258;50.376;8.742;2022-08-21T04:40:09;7.43;;;6.33;;
14348;SDS011;7258;50.376;8.742;2022-08-21T04:42:13;8.93;;;6.40;;
14348;SDS011;7258;50.376;8.742;2022-08-21T04:44:16;6.90;;;6.25;;
14348;SDS011;7258;50.376;8.742;2022-08-21T04:46:19;7.23;;;6.27;;
14348;SDS011;7258;50.376;8.742;2022-08-21T04:48:22;7.03;;;5.87;;
14348;SDS011;7258;50.376;8.742;2022-08-21T04:50:27;6.60;;;6.00;;
14348;SDS011;7258;50.376;8.742;2022-08-21T04:52:32;10.13;;;6.10;;
14348;SDS011;7258;50.376;8.742;2022-08-21T04:54:35;7.55;;;5.78;;
14348;SDS011;7258;50.376;8.742;2022-08-21T04:56:41;8.00;;;5.77;;
14348;SDS011;7258;50.376;8.742;2022-08-21T04:58:48;7.55;;;5.78;;
14348;SDS011;7258;50.376;8.742;2022-08-21T05:00:53;9.32;;;6.38;;
14348;SDS011;7258;50.376;8.742;2022-08-21T05:02:58;7.68;;;6.25;;
14348;SDS011;7258;50.376;8.742;2022-08-21T05:05:03;7.93;;;5.83;;
14348;SDS011;7258;50.376;8.742;2022-08-21T05:07:09;8.00;;;6.07;;
14348;SDS011;7258;50.376;8.742;2022-08-21T05:09:15;10.20;;;5.93;;
14348;SDS011;7258;50.376;8.742;2022-08-21T05:11:20;7.85;;;6.20;;
14348;SDS011;7258;50.376;8.742;2022-08-21T05:13:27;8.05;;;5.75;;
14348;SDS011;7258;50.376;8.742;2022-08-21T05:15:31;7.00;;;5.87;;
14348;SDS011;7258;50.376;8.742;2022-08-21T05:17:34;8.43;;;6.22;;
14348;SDS011;7258;50.376;8.742;2022-08-21T05:19:37;10.20;;;5.72;;
14348;SDS011;7258;50.376;8.742;2022-08-21T05:21:42;6.97;;;6.03;;
14348;SDS011;7258;50.376;8.742;2022-08-21T05:23:46;6.77;;;5.37;;
14348;SDS011;7258;50.376;8.742;2022-08-21T05:25:52;8.07;;;5.68;;
14348;SDS011;7258;50.376;8.742;2022-08-21T05:27:56;7.50;;;6.00;;
14348;SDS011;7258;50.376;8.742;2022-08-21T05:30:02;7.03;;;5.90;;
14348;SDS011;7258;50.376;8.742;2022-08-21T05:32:07;9.48;;;6.25;;
14348;SDS011;7258;50.376;8.742;2022-08-21T05:34:11;6.70;;;5.87;;
14348;SDS011;7258;50.376;8.742;2022-08-21T05:36:17;7.68;;;6.05;;
14348;SDS011;7258;50.376;8.742;2022-08-21T05:38:20;7.10;;;5.75;;
14348;SDS011;7258;50.376;8.742;2022-08-21T05:40:24;7.43;;;5.80;;
14348;SDS011;7258;50.376;8.742;2022-08-21T05:42:27;7.88;;;5.82;;
14348;SDS011;7258;50.376;8.742;2022-08-21T05:44:30;7.57;;;5.68;;
14348;SDS011;7258;50.376;8.742;2022-08-21T05:46:35;6.43;;;5.82;;
14348;SDS011;7258;50.376;8.742;2022-08-21T05:48:38;7.50;;;5.65;;
14348;SDS011;7258;50.376;8.742;2022-08-21T05:50:42;6.65;;;5.78;;
14348;SDS011;7258;50.376;8.742;2022-08-21T05:52:46;6.80;;;5.68;;
14348;SDS011;7258;50.376;8.742;2022-08-21T05:54:49;7.80;;;6.10;;
14348;SDS011;7258;50.376;8.742;2022-08-21T05:56:56;5.72;;;5.22;;
14348;SDS011;7258;50.376;8.742;2022-08-21T05:58:59;8.18;;;5.57;;
14348;SDS011;7258;50.376;8.742;2022-08-21T06:01:09;7.72;;;6.00;;
14348;SDS011;7258;50.376;8.742;2022-08-21T06:03:15;5.63;;;5.05;;
14348;SDS011;7258;50.376;8.742;2022-08-21T06:05:23;6.70;;;5.65;;
14348;SDS011;7258;50.376;8.742;2022-08-21T06:07:37;8.07;;;5.63;;
14348;SDS011;7258;50.376;8.742;2022-08-21T06:09:41;8.75;;;5.57;;
14348;SDS011;7258;50.376;8.742;2022-08-21T06:11:44;6.72;;;5.32;;
14348;SDS011;7258;50.376;8.742;2022-08-21T06:13:48;8.57;;;5.53;;
14348;SDS011;7258;50.376;8.742;2022-08-21T06:16:00;6.45;;;5.47;;
14348;SDS011;7258;50.376;8.742;2022-08-21T06:18:09;5.97;;;4.70;;
14348;SDS011;7258;50.376;8.742;2022-08-21T06:20:14;8.43;;;5.38;;
14348;SDS011;7258;50.376;8.742;2022-08-21T06:22:18;8.40;;;5.10;;
14348;SDS011;7258;50.376;8.742;2022-08-21T06:24:26;5.30;;;4.80;;
14348;SDS011;7258;50.376;8.742;2022-08-21T06:26:32;10.35;;;5.57;;
14348;SDS011;7258;50.376;8.742;2022-08-21T06:28:36;11.77;;;6.13;;
14348;SDS011;7258;50.376;8.742;2022-08-21T06:30:40;5.68;;;5.10;;
14348;SDS011;7258;50.376;8.742;2022-08-21T06:32:42;7.22;;;5.07;;
14348;SDS011;7258;50.376;8.742;2022-08-21T06:34:45;6.22;;;5.25;;
14348;SDS011;7258;50.376;8.742;2022-08-21T06:36:50;6.10;;;4.95;;
14348;SDS011;7258;50.376;8.742;2022-08-21T06:38:57;7.78;;;5.03;;
14348;SDS011;7258;50.376;8.742;2022-08-21T06:41:16;6.43;;;4.60;;
14348;SDS011;7258;50.376;8.742;2022-08-21T06:43:26;6.68;;;5.18;;
14348;SDS011;7258;50.376;8.742;2022-08-21T06:45:40;6.00;;;4.75;;
14348;SDS011;7258;50.376;8.742;2022-08-21T06:47:43;8.32;;;5.47;;
14348;SDS011;7258;50.376;8.742;2022-08-21T06:49:46;8.63;;;5.32;;
14348;SDS011;7258;50.376;8.742;2022-08-21T06:51:51;6.95;;;5.00;;
14348;SDS011;7258;50.376;8.742;2022-08-21T06:53:56;5.45;;;4.80;;
14348;SDS011;7258;50.376;8.742;2022-08-21T06:56:00;7.25;;;4.90;;
14348;SDS011;7258;50.376;8.742;2022-08-21T06:58:03;5.80;;;4.75;;
14348;SDS011;7258;50.376;8.742;2022-08-21T07:00:08;7.50;;;4.95;;
14348;SDS011;7258;50.376;8.742;2022-08-21T07:02:12;7.97;;;4.90;;
14348;SDS011;7258;50.376;8.742;2022-08-21T07:04:15;6.82;;;4.95;;
14348;SDS011;7258;50.376;8.742;2022-08-21T07:06:18;5.78;;;5.03;;
14348;SDS011;7258;50.376;8.742;2022-08-21T07:08:22;5.78;;;4.93;;
14348;SDS011;7258;50.376;8.742;2022-08-21T07:10:27;5.13;;;4.63;;
14348;SDS011;7258;50.376;8.742;2022-08-21T07:12:30;6.57;;;4.95;;
14348;SDS011;7258;50.376;8.742;2022-08-21T07:14:33;5.78;;;4.72;;
14348;SDS011;7258;50.376;8.742;2022-08-21T07:16:37;9.15;;;5.80;;
14348;SDS011;7258;50.376;8.742;2022-08-21T07:18:43;5.60;;;4.30;;
14348;SDS011;7258;50.376;8.742;2022-08-21T07:20:47;5.82;;;4.22;;
14348;SDS011;7258;50.376;8.742;2022-08-21T07:22:50;5.65;;;4.78;;
14348;SDS011;7258;50.376;8.742;2022-08-21T07:24:55;6.15;;;4.63;;
14348;SDS011;7258;50.376;8.742;2022-08-21T07:26:58;7.88;;;5.10;;
14348;SDS011;7258;50.376;8.742;2022-08-21T07:29:01;7.72;;;4.85;;
14348;SDS011;7258;50.376;8.742;2022-08-21T07:31:04;5.60;;;4.47;;
14348;SDS011;7258;50.376;8.742;2022-08-21T07:33:08;6.60;;;5.00;;
14348;SDS011;7258;50.376;8.742;2022-08-21T07:35:11;5.97;;;5.10;;
14348;SDS011;7258;50.376;8.742;2022-08-21T07:37:15;7.03;;;5.60;;
14348;SDS011;7258;50.376;8.742;2022-08-21T07:39:18;6.32;;;4.90;;
14348;SDS011;7258;50.376;8.742;2022-08-21T07:41:23;7.25;;;4.68;;
14348;SDS011;7258;50.376;8.742;2022-08-21T07:43:28;8.43;;;5.10;;
14348;SDS011;7258;50.376;8.742;2022-08-21T07:45:32;6.72;;;4.80;;
14348;SDS011;7258;50.376;8.742;2022-08-21T07:47:35;7.72;;;4.50;;
14348;SDS011;7258;50.376;8.742;2022-08-21T07:49:43;6.93;;;4.72;;
14348;SDS011;7258;50.376;8.742;2022-08-21T07:51:47;7.35;;;5.00;;
14348;SDS011;7258;50.376;8.742;2022-08-21T07:53:52;4.75;;;4.22;;
14348;SDS011;7258;50.376;8.742;2022-08-21T07:55:56;4.88;;;4.22;;
14348;SDS011;7258;50.376;8.742;2022-08-21T07:58:01;7.57;;;4.97;;
14348;SDS011;7258;50.376;8.742;2022-08-21T08:00:05;5.28;;;4.68;;
14348;SDS011;7258;50.376;8.742;2022-08-21T08:02:20;7.05;;;5.35;;
14348;SDS011;7258;50.376;8.742;2022-08-21T08:04:28;5.88;;;4.78;;
14348;SDS011;7258;50.376;8.742;2022-08-21T08:06:34;6.80;;;4.50;;
14348;SDS011;7258;50.376;8.742;2022-08-21T08:08:37;5.85;;;4.95;;
14348;SDS011;7258;50.376;8.742;2022-08-21T08:10:42;7.07;;;5.30;;
14348;SDS011;7258;50.376;8.742;2022-08-21T08:12:47;5.00;;;4.50;;
14348;SDS011;7258;50.376;8.742;2022-08-21T08:14:53;9.65;;;4.80;;
14348;SDS011;7258;50.376;8.742;2022-08-21T08:16:57;5.78;;;4.63;;
14348;SDS011;7258;50.376;8.742;2022-08-21T08:19:07;8.30;;;4.82;;
14348;SDS011;7258;50.376;8.742;2022-08-21T08:21:11;7.72;;;5.07;;
14348;SDS011;7258;50.376;8.742;2022-08-21T08:23:15;6.70;;;4.65;;
14348;SDS011;7258;50.376;8.742;2022-08-21T08:25:18;5.35;;;4.55;;
14348;SDS011;7258;50.376;8.742;2022-08-21T08:27:23;6.32;;;4.72;;
14348;SDS011;7258;50.376;8.742;2022-08-21T08:29:26;7.47;;;5.00;;
14348;SDS011;7258;50.376;8.742;2022-08-21T08:31:31;6.43;;;4.53;;
14348;SDS011;7258;50.376;8.742;2022-08-21T08:33:34;10.05;;;5.63;;
14348;SDS011;7258;50.376;8.742;2022-08-21T08:35:38;6.50;;;5.10;;
14348;SDS011;7258;50.376;8.742;2022-08-21T08:37:42;9.23;;;4.78;;
14348;SDS011;7258;50.376;8.742;2022-08-21T08:39:52;6.13;;;4.75;;
14348;SDS011;7258;50.376;8.742;2022-08-21T08:41:57;6.78;;;4.70;;
14348;SDS011;7258;50.376;8.742;2022-08-21T08:44:29;7.93;;;4.93;;
14348;SDS011;7258;50.376;8.742;2022-08-21T08:46:34;8.25;;;4.75;;
14348;SDS011;7258;50.376;8.742;2022-08-21T08:48:44;7.10;;;4.90;;
14348;SDS011;7258;50.376;8.742;2022-08-21T08:50:54;9.43;;;5.05;;
14348;SDS011;7258;50.376;8.742;2022-08-21T08:53:02;6.95;;;4.93;;
14348;SDS011;7258;50.376;8.742;2022-08-21T08:55:08;7.63;;;4.60;;
14348;SDS011;7258;50.376;8.742;2022-08-21T08:57:16;7.75;;;4.90;;
14348;SDS011;7258;50.376;8.742;2022-08-21T08:59:22;6.32;;;4.55;;
14348;SDS011;7258;50.376;8.742;2022-08-21T09:01:30;8.10;;;4.60;;
14348;SDS011;7258;50.376;8.742;2022-08-21T09:03:40;7.25;;;4.00;;
14348;SDS011;7258;50.376;8.742;2022-08-21T09:05:44;8.43;;;4.80;;
14348;SDS011;7258;50.376;8.742;2022-08-21T09:07:53;8.60;;;4.82;;
14348;SDS011;7258;50.376;8.742;2022-08-21T09:10:20;8.77;;;4.72;;
14348;SDS011;7258;50.376;8.742;2022-08-21T09:12:29;7.40;;;4.57;;
14348;SDS011;7258;50.376;8.742;2022-08-21T09:14:41;5.68;;;4.15;;
14348;SDS011;7258;50.376;8.742;2022-08-21T09:16:54;6.80;;;4.30;;
14348;SDS011;7258;50.376;8.742;2022-08-21T09:19:06;8.00;;;4.18;;
14348;SDS011;7258;50.376;8.742;2022-08-21T09:21:16;6.78;;;4.13;;
14348;SDS011;7258;50.376;8.742;2022-08-21T09:23:32;7.13;;;4.20;;
14348;SDS011;7258;50.376;8.742;2022-08-21T09:25:46;6.38;;;4.43;;
14348;SDS011;7258;50.376;8.742;2022-08-21T09:27:55;7.47;;;4.30;;
14348;SDS011;7258;50.376;8.742;2022-08-21T09:29:58;9.70;;;4.25;;
14348;SDS011;7258;50.376;8.742;2022-08-21T09:32:20;8.38;;;4.15;;
14348;SDS011;7258;50.376;8.742;2022-08-21T09:34:39;10.32;;;4.35;;
14348;SDS011;7258;50.376;8.742;2022-08-21T09:36:49;9.18;;;4.18;;
14348;SDS011;7258;50.376;8.742;2022-08-21T09:39:30;9.60;;;4.13;;
14348;SDS011;7258;50.376;8.742;2022-08-21T09:45:11;8.13;;;3.90;;
14348;SDS011;7258;50.376;8.742;2022-08-21T09:47:46;8.10;;;4.00;;
14348;SDS011;7258;50.376;8.742;2022-08-21T09:49:51;6.50;;;4.10;;
14348;SDS011;7258;50.376;8.742;2022-08-21T09:51:54;6.05;;;3.78;;
14348;SDS011;7258;50.376;8.742;2022-08-21T09:54:00;7.60;;;4.07;;
14348;SDS011;7258;50.376;8.742;2022-08-21T09:56:17;8.38;;;4.00;;
14348;SDS011;7258;50.376;8.742;2022-08-21T09:58:46;6.90;;;3.83;;
14348;SDS011;7258;50.376;8.742;2022-08-21T10:00:57;8.35;;;3.67;;
14348;SDS011;7258;50.376;8.742;2022-08-21T10:03:08;9.55;;;3.90;;
14348;SDS011;7258;50.376;8.742;2022-08-21T10:05:17;6.47;;;3.55;;
14348;SDS011;7258;50.376;8.742;2022-08-21T10:07:23;5.78;;;3.78;;
14348;SDS011;7258;50.376;8.742;2022-08-21T10:09:28;4.80;;;3.03;;
14348;SDS011;7258;50.376;8.742;2022-08-21T10:11:31;6.13;;;2.85;;
14348;SDS011;7258;50.376;8.742;2022-08-21T10:13:41;5.07;;;3.13;;
14348;SDS011;7258;50.376;8.742;2022-08-21T10:15:56;5.05;;;2.78;;
14348;SDS011;7258;50.376;8.742;2022-08-21T10:18:12;6.95;;;3.25;;
14348;SDS011;7258;50.376;8.742;2022-08-21T10:20:27;6.18;;;2.85;;
14348;SDS011;7258;50.376;8.742;2022-08-21T10:22:38;7.07;;;2.92;;
14348;SDS011;7258;50.376;8.742;2022-08-21T10:24:56;8.85;;;3.22;;
14348;SDS011;7258;50.376;8.742;2022-08-21T10:27:12;6.45;;;2.80;;
14348;SDS011;7258;50.376;8.742;2022-08-21T10:29:24;7.53;;;3.30;;
14348;SDS011;7258;50.376;8.742;2022-08-21T10:31:41;7.43;;;3.50;;
14348;SDS011;7258;50.376;8.742;2022-08-21T10:33:51;7.32;;;3.08;;
14348;SDS011;7258;50.376;8.742;2022-08-21T10:36:07;5.05;;;2.80;;
14348;SDS011;7258;50.376;8.742;2022-08-21T10:38:24;8.55;;;3.65;;
14348;SDS011;7258;50.376;8.742;2022-08-21T10:41:10;6.68;;;2.92;;
14348;SDS011;7258;50.376;8.742;2022-08-21T10:43:25;4.57;;;2.90;;
14348;SDS011;7258;50.376;8.742;2022-08-21T10:45:39;7.25;;;3.40;;
14348;SDS011;7258;50.376;8.742;2022-08-21T10:47:50;4.78;;;2.63;;
14348;SDS011;7258;50.376;8.742;2022-08-21T10:49:59;5.57;;;2.80;;
14348;SDS011;7258;50.376;8.742;2022-08-21T10:52:20;5.18;;;3.30;;
14348;SDS011;7258;50.376;8.742;2022-08-21T10:54:37;3.55;;;2.80;;
14348;SDS011;7258;50.376;8.742;2022-08-21T10:56:49;5.40;;;2.85;;
14348;SDS011;7258;50.376;8.742;2022-08-21T10:59:02;6.10;;;2.70;;
14348;SDS011;7258;50.376;8.742;2022-08-21T11:01:18;4.85;;;2.90;;
14348;SDS011;7258;50.376;8.742;2022-08-21T11:03:29;6.93;;;3.22;;
14348;SDS011;7258;50.376;8.742;2022-08-21T11:05:38;5.53;;;2.88;;
14348;SDS011;7258;50.376;8.742;2022-08-21T11:07:53;5.45;;;3.17;;
14348;SDS011;7258;50.376;8.742;2022-08-21T11:10:05;4.88;;;2.60;;
14348;SDS011;7258;50.376;8.742;2022-08-21T11:12:17;4.53;;;3.03;;
14348;SDS011;7258;50.376;8.742;2022-08-21T11:14:30;5.90;;;3.17;;
14348;SDS011;7258;50.376;8.742;2022-08-21T11:16:51;5.65;;;2.85;;
14348;SDS011;7258;50.376;8.742;2022-08-21T11:19:00;5.55;;;2.78;;
14348;SDS011;7258;50.376;8.742;2022-08-21T11:21:26;5.85;;;3.15;;
14348;SDS011;7258;50.376;8.742;2022-08-21T11:23:39;7.65;;;2.78;;
14348;SDS011;7258;50.376;8.742;2022-08-21T11:25:47;5.50;;;2.80;;
14348;SDS011;7258;50.376;8.742;2022-08-21T11:27:56;8.73;;;3.17;;
14348;SDS011;7258;50.376;8.742;2022-08-21T11:30:03;4.72;;;2.60;;
14348;SDS011;7258;50.376;8.742;2022-08-21T11:32:12;4.18;;;2.80;;
14348;SDS011;7258;50.376;8.742;2022-08-21T11:34:45;7.20;;;2.80;;
14348;SDS011;7258;50.376;8.742;2022-08-21T11:37:01;4.78;;;2.50;;
14348;SDS011;7258;50.376;8.742;2022-08-21T11:39:12;4.90;;;2.40;;
14348;SDS011;7258;50.376;8.742;2022-08-21T11:41:23;5.15;;;2.55;;
14348;SDS011;7258;50.376;8.742;2022-08-21T11:43:34;3.70;;;2.30;;
14348;SDS011;7258;50.376;8.742;2022-08-21T11:45:43;4.05;;;2.58;;
14348;SDS011;7258;50.376;8.742;2022-08-21T11:47:52;3.83;;;2.38;;
14348;SDS011;7258;50.376;8.742;2022-08-21T11:50:06;3.00;;;2.15;;
14348;SDS011;7258;50.376;8.742;2022-08-21T11:52:37;4.53;;;2.30;;
14348;SDS011;7258;50.376;8.742;2022-08-21T11:54:45;4.18;;;2.45;;
14348;SDS011;7258;50.376;8.742;2022-08-21T11:56:53;2.47;;;2.15;;
14348;SDS011;7258;50.376;8.742;2022-08-21T11:59:02;4.85;;;2.22;;
14348;SDS011;7258;50.376;8.742;2022-08-21T12:01:11;4.72;;;2.47;;
14348;SDS011;7258;50.376;8.742;2022-08-21T12:03:22;3.65;;;2.35;;
14348;SDS011;7258;50.376;8.742;2022-08-21T12:05:29;4.88;;;2.30;;
14348;SDS011;7258;50.376;8.742;2022-08-21T12:07:37;3.22;;;2.28;;
14348;SDS011;7258;50.376;8.742;2022-08-21T12:09:53;3.13;;;2.00;;
14348;SDS011;7258;50.376;8.742;2022-08-21T12:12:02;3.33;;;2.15;;
14348;SDS011;7258;50.376;8.742;2022-08-21T12:14:12;2.80;;;2.15;;
14348;SDS011;7258;50.376;8.742;2022-08-21T12:16:28;3.65;;;2.30;;
14348;SDS011;7258;50.376;8.742;2022-08-21T12:18:32;6.03;;;2.30;;
14348;SDS011;7258;50.376;8.742;2022-08-21T12:20:41;4.97;;;2.40;;
14348;SDS011;7258;50.376;8.742;2022-08-21T12:22:52;5.03;;;2.05;;
14348;SDS011;7258;50.376;8.742;2022-08-21T12:25:03;4.63;;;2.28;;
14348;SDS011;7258;50.376;8.742;2022-08-21T12:27:13;3.78;;;2.00;;
14348;SDS011;7258;50.376;8.742;2022-08-21T12:29:31;4.00;;;2.10;;
14348;SDS011;7258;50.376;8.742;2022-08-21T12:31:36;2.70;;;1.80;;
14348;SDS011;7258;50.376;8.742;2022-08-21T12:33:55;2.30;;;1.80;;
14348;SDS011;7258;50.376;8.742;2022-08-21T12:36:02;6.18;;;1.90;;
14348;SDS011;7258;50.376;8.742;2022-08-21T12:38:12;3.40;;;1.90;;
14348;SDS011;7258;50.376;8.742;2022-08-21T12:40:20;2.53;;;2.03;;
14348;SDS011;7258;50.376;8.742;2022-08-21T12:42:28;3.22;;;1.80;;
14348;SDS011;7258;50.376;8.742;2022-08-21T12:44:39;4.07;;;2.28;;
14348;SDS011;7258;50.376;8.742;2022-08-21T12:46:51;4.05;;;2.03;;
14348;SDS011;7258;50.376;8.742;2022-08-21T12:48:59;2.28;;;1.65;;
14348;SDS011;7258;50.376;8.742;2022-08-21T12:51:09;3.60;;;1.75;;
14348;SDS011;7258;50.376;8.742;2022-08-21T12:53:15;2.65;;;2.13;;
14348;SDS011;7258;50.376;8.742;2022-08-21T12:55:31;6.03;;;2.33;;
14348;SDS011;7258;50.376;8.742;2022-08-21T12:57:36;4.72;;;2.25;;
14348;SDS011;7258;50.376;8.742;2022-08-21T12:59:40;4.28;;;2.00;;